Time;durP1;ratioP1;P1;durP2;ratioP2;P2;SDS_P1;SDS_P2;PMS_P1;PMS_P2;Temp;Humidity;BMP_temperature;BMP_pressure;BME280_temperature;BME280_humidity;BME280_pressure;Samples;Min_cycle;Max_cycle;Signal;HPM_P1;HPM_P2
2022/09/07 00:01:55;;;;;;;4.82;2.30;;;;;;;20.00;75.46;101343.97;5016238;28;20032;-70
2022/09/07 00:04:20;;;;;;;6.50;2.35;;;;;;;20.05;75.80;101344.75;5019381;28;20501;-69
2022/09/07 00:06:46;;;;;;;5.60;2.50;;;;;;;20.22;75.12;101340.03;5002197;28;20045;-70
2022/09/07 00:09:12;;;;;;;5.05;2.35;;;;;;;19.98;74.92;101336.06;5013123;28;20029;-71
2022/09/07 00:11:37;;;;;;;4.68;2.33;;;;;;;19.75;75.36;101332.94;5016764;28;20021;-71
2022/09/07 00:14:06;;;;;;;3.83;2.20;;;;;;;19.39;76.85;101335.22;5021132;28;20036;-72
2022/09/07 00:16:34;;;;;;;4.75;2.30;;;;;;;19.76;76.33;101329.41;4977784;28;21085;-70
2022/09/07 00:19:02;;;;;;;5.90;2.60;;;;;;;19.58;76.58;101325.28;5016881;28;20876;-71
2022/09/07 00:21:28;;;;;;;5.00;2.83;;;;;;;19.62;76.33;101316.41;5019339;28;20039;-70
2022/09/07 00:23:54;;;;;;;6.03;2.88;;;;;;;19.84;76.13;101303.66;5016256;28;20046;-69
2022/09/07 00:26:22;;;;;;;5.25;2.88;;;;;;;19.88;76.09;101310.66;5015579;28;20036;-70
2022/09/07 00:28:48;;;;;;;4.28;2.50;;;;;;;19.80;76.02;101313.44;5015127;28;20044;-71
2022/09/07 00:31:19;;;;;;;5.53;2.53;;;;;;;19.53;76.68;101305.97;5030531;28;20024;-70
2022/09/07 00:33:49;;;;;;;5.05;2.15;;;;;;;19.66;76.07;101310.16;5015451;28;20582;-70
2022/09/07 00:36:16;;;;;;;4.55;2.00;;;;;;;19.67;75.09;101303.09;5023129;28;20636;-70
2022/09/07 00:38:41;;;;;;;3.17;2.05;;;;;;;19.56;75.21;101310.34;5018959;28;20062;-71
2022/09/07 00:41:07;;;;;;;4.03;1.88;;;;;;;19.72;74.48;101310.06;4995146;28;20028;-70
2022/09/07 00:43:41;;;;;;;4.88;2.00;;;;;;;19.58;75.02;101312.03;5018841;28;20087;-71
2022/09/07 00:46:13;;;;;;;3.72;2.30;;;;;;;19.87;74.98;101305.41;5014173;28;20048;-70
2022/09/07 00:48:46;;;;;;;4.15;2.10;;;;;;;19.95;74.31;101309.63;5027512;28;20068;-71
2022/09/07 00:51:17;;;;;;;3.35;1.92;;;;;;;19.95;74.53;101314.06;5031822;28;20094;-70
2022/09/07 00:53:52;;;;;;;4.07;2.20;;;;;;;19.68;75.10;101311.00;5005663;28;22232;-71
2022/09/07 00:56:20;;;;;;;4.18;2.40;;;;;;;19.77;74.80;101316.13;5022100;28;20039;-70
2022/09/07 00:58:45;;;;;;;3.22;2.30;;;;;;;19.90;74.54;101314.13;5020960;28;20039;-70
2022/09/07 01:01:11;;;;;;;6.68;2.85;;;;;;;19.77;75.03;101324.06;5022012;28;20032;-70
2022/09/07 01:03:49;;;;;;;5.15;2.67;;;;;;;19.80;75.08;101324.03;5016863;28;20128;-69
2022/09/07 01:06:18;;;;;;;6.35;2.88;;;;;;;19.68;75.50;101320.72;5017597;28;20068;-70
2022/09/07 01:08:46;;;;;;;4.47;3.00;;;;;;;19.89;75.21;101317.69;5024666;28;20118;-71
2022/09/07 01:11:12;;;;;;;5.53;2.63;;;;;;;19.98;74.89;101322.81;5014297;28;20683;-71
2022/09/07 01:13:43;;;;;;;5.88;3.05;;;;;;;19.85;75.08;101321.28;5024395;28;20585;-70
2022/09/07 01:16:28;;;;;;;4.57;2.80;;;;;;;19.88;74.62;101323.91;5008100;28;20086;-69
2022/09/07 01:19:12;;;;;;;5.20;3.20;;;;;;;19.80;75.36;101329.31;5018657;28;20050;-68
2022/09/07 01:21:58;;;;;;;5.00;2.95;;;;;;;19.82;75.31;101332.78;5018123;28;20036;-69
2022/09/07 01:24:42;;;;;;;6.35;3.30;;;;;;;19.73;75.63;101332.09;5026337;28;20029;-70
2022/09/07 01:27:52;;;;;;;4.47;3.08;;;;;;;19.78;75.51;101335.53;5019199;28;20434;-70
2022/09/07 01:30:20;;;;;;;6.82;2.78;;;;;;;19.80;75.00;101336.38;5012638;28;20394;-71
2022/09/07 01:33:23;;;;;;;4.18;2.88;;;;;;;19.91;75.01;101337.06;5016802;28;20028;-71
2022/09/07 01:36:26;;;;;;;6.78;3.08;;;;;;;19.60;76.01;101339.34;5019515;28;20056;-70
2022/09/07 01:38:55;;;;;;;5.30;2.90;;;;;;;19.84;75.07;101346.00;5012982;28;21199;-71
2022/09/07 01:41:52;;;;;;;5.22;3.20;;;;;;;19.98;74.68;101341.34;5019187;28;21722;-70
2022/09/07 01:44:23;;;;;;;6.05;3.40;;;;;;;20.03;74.85;101355.38;5035688;28;20051;-69
2022/09/07 01:47:04;;;;;;;17.85;3.30;;;;;;;20.11;74.97;101349.94;5030447;28;20052;-69
2022/09/07 01:49:51;;;;;;;6.15;3.67;;;;;;;20.19;74.57;101338.28;5012611;28;20033;-68
2022/09/07 01:52:30;;;;;;;5.00;3.30;;;;;;;19.95;75.03;101333.44;5025104;28;20114;-69
2022/09/07 01:55:30;;;;;;;5.90;3.30;;;;;;;19.81;75.20;101332.84;5024076;28;20521;-69
2022/09/07 01:58:12;;;;;;;5.60;3.30;;;;;;;19.87;75.18;101335.38;5014676;28;20110;-70
2022/09/07 02:00:41;;;;;;;5.78;3.30;;;;;;;19.94;75.12;101334.38;5024648;28;20039;-70
2022/09/07 02:03:14;;;;;;;8.05;3.45;;;;;;;19.85;75.66;101331.88;5028615;28;20119;-70
2022/09/07 02:05:57;;;;;;;5.43;3.30;;;;;;;19.73;75.71;101330.31;5014450;28;20049;-70
2022/09/07 02:08:34;;;;;;;8.20;3.70;;;;;;;19.58;76.47;101332.34;5026782;28;20024;-70
2022/09/07 02:11:19;;;;;;;7.82;3.60;;;;;;;19.85;75.81;101337.16;5030455;28;20463;-70
2022/09/07 02:13:53;;;;;;;7.18;4.00;;;;;;;20.01;75.84;101328.03;5030150;28;20665;-70
2022/09/07 02:16:27;;;;;;;5.97;3.72;;;;;;;20.08;75.49;101327.03;5018377;28;20455;-68
2022/09/07 02:19:04;;;;;;;5.55;3.60;;;;;;;20.17;75.20;101326.00;5032090;28;20036;-69
2022/09/07 02:21:35;;;;;;;5.70;3.60;;;;;;;20.07;74.88;101325.28;5007520;28;20115;-69
2022/09/07 02:24:12;;;;;;;5.30;3.40;;;;;;;20.10;75.06;101327.03;5031443;28;20049;-69
2022/09/07 02:26:40;;;;;;;7.03;3.90;;;;;;;20.13;75.22;101330.47;4995593;28;20040;-69
2022/09/07 02:29:08;;;;;;;8.10;3.80;;;;;;;20.17;75.39;101331.31;5020702;28;20518;-69
2022/09/07 02:31:33;;;;;;;6.65;3.38;;;;;;;19.99;75.03;101334.28;5017131;28;20036;-69
2022/09/07 02:34:00;;;;;;;3.78;2.72;;;;;;;19.84;75.34;101340.72;5013901;28;20035;-69
2022/09/07 02:36:30;;;;;;;4.88;2.95;;;;;;;19.79;75.74;101337.28;5019844;28;20051;-69
2022/09/07 02:38:56;;;;;;;4.90;3.00;;;;;;;19.73;75.60;101325.03;5045935;28;20585;-69
2022/09/07 02:41:33;;;;;;;5.32;2.90;;;;;;;19.79;75.16;101343.44;5025834;28;20106;-70
2022/09/07 02:44:23;;;;;;;4.70;2.70;;;;;;;19.95;74.97;101346.69;5014384;28;20083;-69
2022/09/07 02:46:58;;;;;;;5.03;2.88;;;;;;;19.87;75.12;101345.09;5024881;28;20091;-70
2022/09/07 02:49:41;;;;;;;4.90;2.80;;;;;;;19.95;75.17;101341.38;4987813;28;20036;-70
2022/09/07 02:53:00;;;;;;;4.63;3.03;;;;;;;19.92;75.26;101340.59;5018928;28;20417;-70
2022/09/07 02:55:41;;;;;;;4.32;3.05;;;;;;;19.89;75.17;101333.56;4989697;28;20887;-71
2022/09/07 02:58:09;;;;;;;4.43;3.13;;;;;;;19.66;75.61;101333.97;5019509;28;20360;-71
2022/09/07 03:00:44;;;;;;;7.38;3.17;;;;;;;19.58;76.08;101325.28;5033253;28;20937;-70
2022/09/07 03:03:32;;;;;;;4.72;3.25;;;;;;;19.62;76.01;101320.81;5021373;28;20059;-70
2022/09/07 03:06:01;;;;;;;4.28;3.20;;;;;;;19.55;76.51;101327.09;5011039;28;20062;-71
2022/09/07 03:08:48;;;;;;;6.30;3.38;;;;;;;19.62;76.15;101321.69;5028595;28;20048;-69
2022/09/07 03:11:17;;;;;;;6.50;3.70;;;;;;;19.60;76.20;101326.13;5017124;28;20040;-71
2022/09/07 03:13:42;;;;;;;7.35;3.60;;;;;;;19.62;76.21;101318.19;5038219;28;20056;-70
2022/09/07 03:16:13;;;;;;;7.43;3.47;;;;;;;19.60;76.21;101310.25;5014692;28;20407;-70
2022/09/07 03:18:39;;;;;;;6.65;3.60;;;;;;;19.43;76.64;101305.22;5021367;28;20052;-71
2022/09/07 03:21:04;;;;;;;6.18;3.35;;;;;;;19.07;77.72;101305.78;5025062;28;20404;-70
2022/09/07 03:23:30;;;;;;;7.57;3.47;;;;;;;19.14;77.64;101294.22;5014194;28;20133;-70
2022/09/07 03:25:55;;;;;;;5.18;3.42;;;;;;;19.28;76.78;101292.22;5013012;28;20495;-70
2022/09/07 03:28:20;;;;;;;5.03;3.22;;;;;;;19.21;77.08;101298.50;5023777;28;20036;-71
2022/09/07 03:30:46;;;;;;;4.85;2.97;;;;;;;19.33;76.55;101298.31;5026517;28;20021;-71
2022/09/07 03:33:14;;;;;;;5.85;2.92;;;;;;;19.41;75.96;101296.44;5014617;28;20047;-69
2022/09/07 03:35:41;;;;;;;4.97;3.20;;;;;;;19.38;76.05;101300.91;5015599;28;20426;-71
2022/09/07 03:38:13;;;;;;;4.85;3.22;;;;;;;19.35;76.14;101290.38;5014558;28;20346;-70
2022/09/07 03:40:42;;;;;;;5.30;3.08;;;;;;;19.16;76.92;101280.97;5018853;28;20044;-71
2022/09/07 03:43:07;;;;;;;7.15;3.13;;;;;;;19.20;76.78;101275.63;5023388;28;20821;-69
2022/09/07 03:45:33;;;;;;;5.82;3.28;;;;;;;19.24;76.50;101281.75;5013138;28;20049;-70
2022/09/07 03:47:59;;;;;;;4.20;3.28;;;;;;;19.23;76.73;101291.44;5017968;28;20745;-71
2022/09/07 03:50:24;;;;;;;5.78;3.30;;;;;;;19.08;77.36;101281.13;5026236;28;20037;-70
2022/09/07 03:52:50;;;;;;;5.13;3.30;;;;;;;19.14;76.78;101277.50;5020617;28;20049;-69
2022/09/07 03:55:15;;;;;;;4.57;3.40;;;;;;;19.13;77.31;101281.91;5015479;28;20033;-70
2022/09/07 03:57:42;;;;;;;4.90;3.40;;;;;;;19.14;77.03;101286.31;5028300;28;20115;-69
2022/09/07 04:00:08;;;;;;;6.35;3.60;;;;;;;19.13;77.03;101297.78;5003304;28;20946;-71
2022/09/07 04:02:33;;;;;;;5.00;3.25;;;;;;;19.13;76.75;101303.06;5025875;28;20459;-69
2022/09/07 04:04:59;;;;;;;5.10;3.60;;;;;;;19.12;76.89;101301.31;5019118;28;20102;-70
2022/09/07 04:07:27;;;;;;;6.20;3.63;;;;;;;19.12;76.77;101305.72;5025094;28;20573;-70
2022/09/07 04:09:52;;;;;;;5.90;4.05;;;;;;;19.15;76.66;101301.25;5015116;28;20108;-70
2022/09/07 04:12:18;;;;;;;5.72;3.90;;;;;;;19.12;76.73;101301.31;5026095;28;20042;-69
2022/09/07 04:14:43;;;;;;;6.10;3.40;;;;;;;19.13;76.31;101299.53;5017430;28;20487;-70
2022/09/07 04:17:09;;;;;;;6.45;3.70;;;;;;;19.08;76.71;101296.09;5024803;28;20612;-70
2022/09/07 04:19:34;;;;;;;5.55;3.67;;;;;;;18.91;77.17;101293.66;5019951;28;20145;-69
2022/09/07 04:22:00;;;;;;;5.68;3.67;;;;;;;19.04;76.67;101298.75;5014217;28;20533;-69
2022/09/07 04:24:25;;;;;;;6.00;3.55;;;;;;;19.02;76.99;101297.06;5022157;28;20028;-71
2022/09/07 04:26:51;;;;;;;6.00;3.65;;;;;;;19.04;76.58;101304.06;5024140;28;20024;-71
2022/09/07 04:29:16;;;;;;;4.70;3.30;;;;;;;18.99;76.77;101305.00;5023377;28;20827;-71
2022/09/07 04:31:41;;;;;;;4.80;3.08;;;;;;;18.94;76.78;101299.81;5008820;28;20024;-71
2022/09/07 04:34:07;;;;;;;4.65;2.95;;;;;;;18.89;77.00;101292.84;4999322;28;20515;-70
2022/09/07 04:36:33;;;;;;;5.20;2.70;;;;;;;18.84;77.01;101290.28;5020870;28;20036;-69
2022/09/07 04:39:03;;;;;;;3.78;2.60;;;;;;;18.93;76.74;101291.88;5013590;28;20711;-68
2022/09/07 04:41:30;;;;;;;4.00;2.72;;;;;;;18.99;76.23;101300.59;5031039;28;20036;-69
2022/09/07 04:43:58;;;;;;;4.22;2.70;;;;;;;19.02;76.20;101294.41;5028868;28;20066;-70
2022/09/07 04:46:30;;;;;;;4.50;2.60;;;;;;;19.06;75.42;101293.47;5042372;28;20043;-71
2022/09/07 04:48:57;;;;;;;6.15;2.70;;;;;;;19.01;76.04;101301.47;5037643;28;20036;-70
2022/09/07 04:51:25;;;;;;;4.15;2.88;;;;;;;19.01;76.14;101292.66;5039215;28;20051;-70
2022/09/07 04:53:52;;;;;;;4.93;3.13;;;;;;;19.00;75.84;101290.91;5036858;28;20084;-70
2022/09/07 04:56:18;;;;;;;6.57;3.10;;;;;;;18.98;76.13;101287.41;5034139;28;20414;-69
2022/09/07 04:58:44;;;;;;;5.70;3.40;;;;;;;18.94;76.26;101288.34;5036131;28;20156;-68
2022/09/07 05:01:13;;;;;;;4.65;3.20;;;;;;;18.91;76.25;101291.03;5036397;28;20046;-70
2022/09/07 05:03:38;;;;;;;4.45;3.33;;;;;;;18.92;76.32;101288.38;5034907;28;20187;-69
2022/09/07 05:06:05;;;;;;;4.45;3.13;;;;;;;18.94;76.09;101283.94;5019647;28;20032;-69
2022/09/07 05:08:40;;;;;;;6.18;3.60;;;;;;;18.92;76.17;101280.44;5032617;28;20047;-70
2022/09/07 05:11:06;;;;;;;7.57;3.80;;;;;;;18.89;76.27;101274.34;5015162;28;20118;-69
2022/09/07 05:13:35;;;;;;;6.80;4.00;;;;;;;18.92;76.31;101274.28;5037815;28;20044;-69
2022/09/07 05:16:11;;;;;;;7.15;3.75;;;;;;;18.99;76.08;101281.22;5026105;28;20802;-70
2022/09/07 05:18:36;;;;;;;6.32;4.32;;;;;;;18.92;76.30;101285.72;5036741;28;20830;-71
2022/09/07 05:21:13;;;;;;;5.97;4.20;;;;;;;18.98;76.26;101287.41;5034406;28;20044;-71
2022/09/07 05:23:39;;;;;;;8.77;5.00;;;;;;;18.89;76.78;101283.16;5037849;28;20123;-70
2022/09/07 05:26:05;;;;;;;8.00;4.95;;;;;;;18.99;76.39;101279.47;5021593;28;20175;-70
2022/09/07 05:28:32;;;;;;;11.82;5.32;;;;;;;18.99;76.53;101284.75;5041547;28;21188;-71
2022/09/07 05:31:13;;;;;;;9.05;5.25;;;;;;;19.00;76.72;101289.16;5039586;28;20058;-69
2022/09/07 05:33:39;;;;;;;7.53;5.13;;;;;;;18.93;76.83;101287.47;5029598;28;20518;-71
2022/09/07 05:36:05;;;;;;;9.13;5.00;;;;;;;19.00;76.85;101290.91;5028127;28;20444;-69
2022/09/07 05:38:35;;;;;;;7.57;4.95;;;;;;;19.00;76.76;101285.63;5034521;28;20027;-69
2022/09/07 05:41:08;;;;;;;10.68;5.32;;;;;;;19.04;76.76;101295.25;5017758;28;20356;-70
2022/09/07 05:43:35;;;;;;;9.02;5.70;;;;;;;19.07;76.71;101292.56;5039748;28;20580;-69
2022/09/07 05:46:01;;;;;;;8.43;5.13;;;;;;;19.11;76.57;101291.63;5014575;28;20042;-69
2022/09/07 05:48:28;;;;;;;8.63;5.50;;;;;;;19.15;76.65;101298.59;5023048;28;20062;-71
2022/09/07 05:50:54;;;;;;;9.90;5.60;;;;;;;19.13;76.55;101303.06;5041146;28;20310;-70
2022/09/07 05:53:20;;;;;;;9.80;5.60;;;;;;;19.12;76.58;101311.00;5032837;28;20071;-70
2022/09/07 05:55:51;;;;;;;9.27;5.30;;;;;;;19.10;76.53;101304.84;5026812;28;20158;-70
2022/09/07 05:58:17;;;;;;;11.20;5.60;;;;;;;19.10;76.69;101296.91;5009527;28;20571;-69
2022/09/07 06:00:44;;;;;;;9.43;5.70;;;;;;;19.21;76.80;101293.22;5016569;28;20101;-70
2022/09/07 06:03:13;;;;;;;11.10;5.65;;;;;;;19.30;76.97;101301.03;5038930;28;20107;-70
2022/09/07 06:05:38;;;;;;;9.00;5.28;;;;;;;19.44;76.80;101303.44;5045639;28;20465;-70
2022/09/07 06:08:04;;;;;;;8.18;5.30;;;;;;;19.50;76.59;101298.09;5026936;28;20073;-70
2022/09/07 06:10:33;;;;;;;8.20;5.30;;;;;;;19.48;76.22;101315.75;5050220;28;20032;-71
2022/09/07 06:12:59;;;;;;;9.27;5.38;;;;;;;19.62;76.30;101312.88;5028345;28;20542;-70
2022/09/07 06:15:25;;;;;;;9.75;5.43;;;;;;;19.67;75.95;101322.50;5018874;28;20098;-70
2022/09/07 06:17:52;;;;;;;7.28;5.35;;;;;;;19.67;75.88;101318.97;5020502;28;20403;-70
2022/09/07 06:20:18;;;;;;;9.35;5.38;;;;;;;19.68;75.84;101320.72;5017165;28;20051;-70
2022/09/07 06:22:43;;;;;;;8.95;5.50;;;;;;;19.81;75.20;101325.78;5045743;28;20083;-70
2022/09/07 06:25:08;;;;;;;8.65;5.30;;;;;;;19.64;75.88;101322.53;5027344;28;20048;-69
2022/09/07 06:27:34;;;;;;;8.13;5.70;;;;;;;20.04;75.33;101325.38;5037128;28;20367;-71
2022/09/07 06:29:59;;;;;;;8.23;5.25;;;;;;;20.41;73.91;101329.97;5034903;28;20509;-71
2022/09/07 06:32:25;;;;;;;7.47;5.00;;;;;;;20.94;71.97;101336.81;5026029;28;20028;-70
2022/09/07 06:34:50;;;;;;;7.13;4.80;;;;;;;21.99;70.31;101335.19;5043496;28;20035;-70
2022/09/07 06:37:16;;;;;;;7.20;4.85;;;;;;;22.56;66.87;101334.53;5041049;28;20040;-70
2022/09/07 06:39:42;;;;;;;10.23;4.90;;;;;;;23.10;63.91;101329.38;5045506;28;20035;-70
2022/09/07 06:42:07;;;;;;;9.57;5.50;;;;;;;23.71;61.63;101330.09;4999380;28;20382;-70
2022/09/07 06:44:32;;;;;;;7.10;5.35;;;;;;;24.15;59.16;101334.72;5050199;28;20037;-70
2022/09/07 06:46:58;;;;;;;9.55;6.15;;;;;;;23.32;60.89;101342.84;5034952;28;20619;-70
2022/09/07 06:49:25;;;;;;;8.27;6.45;;;;;;;23.05;62.08;101333.97;5014875;28;20052;-71
2022/09/07 06:51:50;;;;;;;9.23;6.97;;;;;;;22.83;63.28;101333.72;5041881;28;20032;-70
2022/09/07 06:54:16;;;;;;;10.43;7.60;;;;;;;22.35;64.58;101345.75;5035587;28;20689;-70
2022/09/07 06:56:42;;;;;;;9.05;7.22;;;;;;;22.15;65.36;101349.81;5045853;28;20047;-71
2022/09/07 06:59:07;;;;;;;11.45;8.07;;;;;;;21.99;66.87;101351.13;5046203;28;20111;-69
2022/09/07 07:01:33;;;;;;;10.98;8.18;;;;;;;21.88;67.14;101358.47;5015506;28;20124;-71
2022/09/07 07:04:00;;;;;;;12.05;8.15;;;;;;;22.15;66.03;101356.91;5036999;28;20717;-71
2022/09/07 07:06:33;;;;;;;11.05;8.10;;;;;;;22.02;66.87;101359.00;5045129;28;20600;-71
2022/09/07 07:08:59;;;;;;;12.95;8.70;;;;;;;22.15;67.08;101360.44;5043258;28;20038;-71
2022/09/07 07:11:25;;;;;;;11.07;8.27;;;;;;;22.33;65.42;101366.16;5049372;28;20036;-70
2022/09/07 07:13:51;;;;;;;13.10;8.52;;;;;;;22.50;65.47;101354.19;5010097;28;20065;-70
2022/09/07 07:16:17;;;;;;;12.63;9.05;;;;;;;22.43;64.99;101363.22;5030764;28;20617;-70
2022/09/07 07:18:43;;;;;;;11.40;8.55;;;;;;;22.80;64.81;101357.75;5040468;28;20522;-70
2022/09/07 07:21:10;;;;;;;11.07;8.45;;;;;;;22.86;63.29;101349.59;5044983;28;20032;-70
2022/09/07 07:23:42;;;;;;;14.13;8.98;;;;;;;23.08;62.91;101339.19;5038563;28;20024;-69
2022/09/07 07:26:15;;;;;;;11.45;9.13;;;;;;;23.55;61.24;101347.47;5036121;28;20478;-72
2022/09/07 07:28:46;;;;;;;9.02;7.63;;;;;;;23.98;60.43;101342.44;5031662;28;20028;-73
2022/09/07 07:31:13;;;;;;;9.55;7.22;;;;;;;24.19;58.62;101349.72;5029931;28;20033;-69
2022/09/07 07:33:51;;;;;;;9.27;7.32;;;;;;;24.65;58.27;101358.72;5027334;28;20047;-70
2022/09/07 07:36:42;;;;;;;9.48;7.28;;;;;;;24.64;57.68;101365.84;5034463;28;20099;-69
2022/09/07 07:39:08;;;;;;;9.07;7.00;;;;;;;24.60;56.99;101366.00;5029402;28;20036;-69
2022/09/07 07:41:34;;;;;;;12.63;7.70;;;;;;;24.45;58.16;101363.91;5038192;28;20058;-70
2022/09/07 07:43:59;;;;;;;10.32;7.70;;;;;;;24.56;56.71;101373.25;5010493;28;20024;-70
2022/09/07 07:46:28;;;;;;;9.70;8.05;;;;;;;24.59;56.52;101374.94;5035397;28;20043;-69
2022/09/07 07:48:54;;;;;;;11.57;8.68;;;;;;;23.90;59.06;101379.13;5021154;28;20047;-70
2022/09/07 07:51:20;;;;;;;9.35;7.97;;;;;;;24.23;59.28;101364.66;4989807;28;20140;-69
2022/09/07 07:53:47;;;;;;;13.02;9.30;;;;;;;24.01;59.49;101371.66;4957143;28;20013;-70
2022/09/07 07:56:13;;;;;;;15.52;9.10;;;;;;;23.42;60.22;101366.44;4979224;28;20049;-69
2022/09/07 07:58:39;;;;;;;11.07;8.95;;;;;;;23.42;61.38;101368.28;4980456;28;20198;-71
2022/09/07 08:01:07;;;;;;;11.13;8.80;;;;;;;23.55;62.49;101372.28;4977808;28;20053;-70
2022/09/07 08:03:34;;;;;;;11.60;8.73;;;;;;;23.51;61.70;101372.44;4988210;28;20029;-70
2022/09/07 08:06:06;;;;;;;12.85;8.18;;;;;;;23.54;61.84;101372.38;4971905;28;20858;-69
2022/09/07 08:08:33;;;;;;;9.98;7.78;;;;;;;23.63;61.60;101372.06;4983291;28;20057;-69
2022/09/07 08:11:06;;;;;;;11.30;7.40;;;;;;;23.82;61.49;101365.19;4959374;28;20396;-68
2022/09/07 08:13:33;;;;;;;9.60;7.60;;;;;;;23.41;61.83;101367.41;4960476;28;20072;-69
2022/09/07 08:15:59;;;;;;;11.15;7.15;;;;;;;23.90;61.14;101357.84;4968490;28;20080;-69
2022/09/07 08:18:25;;;;;;;9.13;7.13;;;;;;;23.82;61.16;101354.56;4988782;28;20045;-68
2022/09/07 08:21:10;;;;;;;9.88;6.80;;;;;;;24.03;61.42;101356.47;4987361;28;20029;-70
2022/09/07 08:23:36;;;;;;;10.43;7.13;;;;;;;24.20;60.46;101356.81;4967193;28;20065;-69
2022/09/07 08:26:02;;;;;;;10.63;6.88;;;;;;;24.09;60.77;101342.09;4961560;28;20128;-68
2022/09/07 08:28:30;;;;;;;11.07;7.40;;;;;;;24.14;60.38;101345.47;4963658;28;20026;-69
2022/09/07 08:30:56;;;;;;;10.88;7.05;;;;;;;24.25;61.14;101343.31;4977561;28;20072;-70
2022/09/07 08:33:22;;;;;;;11.18;6.80;;;;;;;24.36;59.75;101346.44;4975826;28;20094;-68
2022/09/07 08:35:59;;;;;;;9.85;6.88;;;;;;;24.16;59.98;101339.13;4947316;28;20038;-69
2022/09/07 08:38:37;;;;;;;9.93;7.03;;;;;;;24.48;59.75;101347.81;4984139;28;20045;-69
2022/09/07 08:41:40;;;;;;;12.05;6.63;;;;;;;24.55;59.36;101355.53;4970660;28;20420;-71
2022/09/07 08:44:09;;;;;;;10.50;7.50;;;;;;;24.48;59.20;101354.00;4960728;28;20591;-71
2022/09/07 08:46:59;;;;;;;8.45;6.28;;;;;;;24.63;57.84;101349.91;4989208;28;20404;-70
2022/09/07 08:50:00;;;;;;;11.27;5.97;;;;;;;24.73;58.28;101355.75;4972163;28;20125;-72
2022/09/07 08:52:35;;;;;;;10.68;5.90;;;;;;;24.70;57.47;101347.91;4991061;28;20080;-71
2022/09/07 08:55:32;;;;;;;7.53;5.60;;;;;;;24.45;57.37;101343.47;4960766;28;20026;-71
2022/09/07 08:58:09;;;;;;;10.15;5.65;;;;;;;24.35;57.08;101336.72;4974467;28;20040;-69
2022/09/07 09:00:38;;;;;;;7.78;4.72;;;;;;;24.58;57.42;101355.41;4981778;28;20041;-70
2022/09/07 09:03:07;;;;;;;9.20;5.03;;;;;;;24.57;57.08;101353.69;4992696;28;20041;-70
2022/09/07 09:05:54;;;;;;;9.63;4.25;;;;;;;24.48;56.43;101348.69;4978099;28;20040;-70
2022/09/07 09:08:45;;;;;;;7.97;4.10;;;;;;;24.48;56.46;101354.00;4983726;28;20037;-71
2022/09/07 09:11:39;;;;;;;6.45;3.67;;;;;;;24.65;55.70;101356.91;4978264;28;20041;-69
2022/09/07 09:14:15;;;;;;;7.75;3.47;;;;;;;24.46;55.93;101354.97;4970878;28;20495;-68
2022/09/07 09:16:56;;;;;;;9.65;3.50;;;;;;;24.58;55.51;101350.06;4955948;28;20102;-69
2022/09/07 09:19:39;;;;;;;6.55;2.97;;;;;;;24.75;55.82;101352.13;4992392;28;20052;-69
2022/09/07 09:22:07;;;;;;;8.23;3.20;;;;;;;25.09;55.45;101349.06;4974547;28;20090;-70
2022/09/07 09:24:36;;;;;;;7.68;3.10;;;;;;;25.09;55.21;101345.50;4986503;28;20051;-68
2022/09/07 09:27:02;;;;;;;8.05;3.20;;;;;;;24.91;54.56;101357.75;4955842;28;20044;-68
2022/09/07 09:29:27;;;;;;;7.63;3.13;;;;;;;25.26;54.79;101359.06;4988017;28;20041;-68
2022/09/07 09:31:52;;;;;;;10.18;3.40;;;;;;;25.46;53.24;101353.78;4971947;28;21131;-68
2022/09/07 09:34:19;;;;;;;7.18;2.97;;;;;;;25.72;52.61;101348.28;4977576;28;20045;-69
2022/09/07 09:36:48;;;;;;;7.05;2.80;;;;;;;26.01;50.98;101349.72;4982986;28;20136;-68
2022/09/07 09:39:35;;;;;;;7.93;2.72;;;;;;;26.05;51.31;101345.97;4986349;28;20128;-70
2022/09/07 09:42:22;;;;;;;8.07;2.85;;;;;;;26.01;50.39;101343.50;4970642;28;20678;-70
2022/09/07 09:44:49;;;;;;;7.50;2.80;;;;;;;25.93;50.78;101337.59;4989196;28;20041;-71
2022/09/07 09:47:31;;;;;;;7.25;2.55;;;;;;;25.97;50.39;101342.78;4954805;28;20137;-70
2022/09/07 09:50:00;;;;;;;5.85;2.00;;;;;;;26.35;50.05;101335.75;4966015;28;20057;-70
2022/09/07 09:52:58;;;;;;;6.85;2.60;;;;;;;26.27;50.35;101332.59;4980129;28;20124;-70
2022/09/07 09:55:34;;;;;;;8.93;2.30;;;;;;;26.36;48.79;101334.81;4958616;28;20091;-70
2022/09/07 09:58:01;;;;;;;10.02;2.22;;;;;;;26.47;48.62;101327.19;4963145;28;20056;-71
2022/09/07 10:00:32;;;;;;;10.40;2.55;;;;;;;26.91;49.27;101318.94;4961052;28;20099;-70
2022/09/07 10:03:19;;;;;;;6.97;2.20;;;;;;;26.94;48.04;101329.53;4942336;28;21767;-71
2022/09/07 10:05:50;;;;;;;5.25;2.30;;;;;;;26.67;47.89;101320.94;4976018;28;20083;-71
2022/09/07 10:08:27;;;;;;;6.80;2.20;;;;;;;26.81;47.75;101321.16;4958582;28;20472;-71
2022/09/07 10:10:56;;;;;;;6.20;2.10;;;;;;;27.09;48.67;101328.78;4979694;28;20044;-70
2022/09/07 10:13:30;;;;;;;5.90;2.47;;;;;;;27.47;47.89;101332.28;4992418;28;20037;-70
2022/09/07 10:16:02;;;;;;;8.10;2.60;;;;;;;27.55;46.76;101321.22;4961444;28;20152;-73
2022/09/07 10:18:32;;;;;;;4.78;2.38;;;;;;;27.76;46.40;101320.13;4989237;28;20033;-69
2022/09/07 10:21:27;;;;;;;5.65;2.65;;;;;;;27.33;46.12;101319.56;4952172;28;20053;-70
2022/09/07 10:23:57;;;;;;;7.07;2.20;;;;;;;27.22;47.16;101329.06;4961892;28;20471;-74
2022/09/07 10:26:32;;;;;;;7.60;2.40;;;;;;;25.58;nan;101323.94;4946450;28;20099;-88
2022/09/07 10:29:15;;;;;;;5.63;2.35;;;;;;;25.65;nan;101313.88;4944177;28;20475;-75
2022/09/07 10:32:22;;;;;;;8.25;2.38;;;;;;;25.03;nan;101333.28;4925702;28;20057;-87
2022/09/07 10:34:48;;;;;;;5.88;2.38;;;;;;;25.51;nan;101350.94;4930795;28;20051;-72
2022/09/07 10:37:39;;;;;;;7.00;2.20;;;;;;;24.69;nan;101356.81;4980285;28;20033;-67
2022/09/07 10:40:15;;;;;;;9.20;2.60;;;;;;;24.76;nan;101347.66;4956391;28;20415;-68
2022/09/07 10:42:57;;;;;;;7.47;2.45;;;;;;;24.98;nan;101348.59;4982736;28;20060;-70
2022/09/07 10:45:42;;;;;;;10.93;2.95;;;;;;;24.69;nan;101348.81;4967090;28;20128;-68
2022/09/07 10:48:29;;;;;;;8.93;3.33;;;;;;;24.68;nan;101355.94;4938528;28;20456;-68
2022/09/07 10:51:03;;;;;;;6.85;3.10;;;;;;;24.72;nan;101349.56;4931796;28;20061;-69
2022/09/07 10:53:34;;;;;;;;;;;;;;;24.56;nan;101332.41;4989434;28;20103;-67
2022/09/07 10:56:20;;;;;;;7.63;3.08;;;;;;;24.71;nan;101336.28;4964094;28;19923;-67
2022/09/07 10:58:59;;;;;;;7.28;3.28;;;;;;;24.28;nan;101332.53;4989087;28;20403;-69
2022/09/07 12:04:02;;;;;;;8.35;3.47;;;;;;;;;;4970388;27;20137;-41
2022/09/07 13:19:49;;;;;;;8.10;2.17;;;;;;;26.49;41.29;101263.81;4969780;28;20400;-39
2022/09/07 13:22:30;;;;;;;5.45;2.25;;;;;;;27.40;40.03;101256.72;4963537;28;20084;-42
2022/09/07 13:24:58;;;;;;;7.53;2.33;;;;;;;27.08;40.12;101252.09;4966590;28;20050;-41
2022/09/07 13:27:54;;;;;;;4.55;1.92;;;;;;;27.42;38.87;101246.81;4970369;28;20145;-41
2022/09/07 13:30:38;;;;;;;7.03;2.60;;;;;;;27.26;40.14;101245.00;4959284;28;20510;-43
2022/09/07 13:33:28;;;;;;;8.25;2.42;;;;;;;27.40;40.46;101245.16;4952811;28;20045;-40
2022/09/07 13:35:57;;;;;;;4.22;2.05;;;;;;;27.86;40.36;101235.66;4974016;28;20509;-40
2022/09/07 13:38:24;;;;;;;6.18;2.00;;;;;;;28.31;39.13;101240.38;4972516;28;20044;-41
2022/09/07 13:40:51;;;;;;;8.15;2.15;;;;;;;27.97;38.08;101235.94;4973083;28;20137;-42
2022/09/07 13:43:22;;;;;;;7.43;2.00;;;;;;;28.70;37.47;101240.00;4977370;28;20048;-42
2022/09/07 13:45:48;;;;;;;6.78;1.98;;;;;;;28.59;37.54;101239.75;4977008;28;20128;-42
2022/09/07 13:48:26;;;;;;;5.78;1.83;;;;;;;28.40;35.80;101237.22;4979917;28;20081;-41
2022/09/07 13:51:11;;;;;;;6.10;2.00;;;;;;;28.45;35.86;101240.50;4976902;28;20064;-41
2022/09/07 13:53:55;;;;;;;7.35;2.05;;;;;;;28.09;37.48;101231.75;4972865;28;20068;-42
2022/09/07 13:56:39;;;;;;;;;;;;;;;27.83;36.56;101225.94;4962027;28;20057;-32
2022/09/07 13:59:25;;;;;;;9.25;1.65;;;;;;;28.04;36.96;101226.63;4963640;28;19971;-46
2022/09/07 14:01:51;;;;;;;6.28;1.83;;;;;;;28.15;37.04;101226.09;4975918;28;20487;-53
2022/09/07 14:04:26;;;;;;;7.80;2.25;;;;;;;28.25;37.53;101222.81;4968497;28;20025;-56
2022/09/07 14:07:01;;;;;;;6.43;2.00;;;;;;;28.00;38.25;101224.19;4976049;28;20413;-54